Durham, Canada
Current Conditions -  °F | °C
As of 6:00 PM on Sunday 21 Dec 2014 (Local Time) from CYVV Reporting Station
Overcast Overcast  
Wind Chill: 25°   Ceiling: 3000
Heat Index: 30°   Visibility: 15mi
Dew Point: 23°   Wind: 5mph
Humidity: 75%   Direction: 170°S
Pressure: 30.26"   Gusts: NA
Location:  44.18°N, 80.82°W
Report Text: CYVV 212300Z 17004KT 15SM OVC030 M01/M05 A3026 RMK SC8 SLP257
Loading
Personal Weather Stations






























Interactive Weather Map New forecast layout! Learn more

10-Day Weather Forecast

Advertisements
Track Severe Weather on mobile